sensor_id;sensor_type;location;lat;lon;timestamp;P1;durP1;ratioP1;P2;durP2;ratioP2
22107;SDS011;11220;48.812;9.128;2023-06-04T00:01:55;1.33;;;1.23;;
22107;SDS011;11220;48.812;9.128;2023-06-04T00:04:20;1.40;;;1.30;;
22107;SDS011;11220;48.812;9.128;2023-06-04T00:06:48;1.50;;;1.40;;
22107;SDS011;11220;48.812;9.128;2023-06-04T00:09:14;1.75;;;1.27;;
22107;SDS011;11220;48.812;9.128;2023-06-04T00:11:39;2.10;;;1.42;;
22107;SDS011;11220;48.812;9.128;2023-06-04T00:14:05;1.60;;;1.40;;
22107;SDS011;11220;48.812;9.128;2023-06-04T00:16:31;1.50;;;1.38;;
22107;SDS011;11220;48.812;9.128;2023-06-04T00:18:56;2.22;;;1.50;;
22107;SDS011;11220;48.812;9.128;2023-06-04T00:21:22;1.58;;;1.38;;
22107;SDS011;11220;48.812;9.128;2023-06-04T00:23:47;1.95;;;1.67;;
22107;SDS011;11220;48.812;9.128;2023-06-04T00:26:13;1.40;;;1.30;;
22107;SDS011;11220;48.812;9.128;2023-06-04T00:28:39;2.20;;;1.20;;
22107;SDS011;11220;48.812;9.128;2023-06-04T00:31:05;1.35;;;1.23;;
22107;SDS011;11220;48.812;9.128;2023-06-04T00:33:35;1.88;;;1.38;;
22107;SDS011;11220;48.812;9.128;2023-06-04T00:36:01;2.10;;;1.42;;
22107;SDS011;11220;48.812;9.128;2023-06-04T00:38:26;1.55;;;1.30;;
22107;SDS011;11220;48.812;9.128;2023-06-04T00:40:58;1.65;;;1.27;;
22107;SDS011;11220;48.812;9.128;2023-06-04T00:43:26;1.90;;;1.50;;
22107;SDS011;11220;48.812;9.128;2023-06-04T00:45:52;1.77;;;1.30;;
22107;SDS011;11220;48.812;9.128;2023-06-04T00:48:18;1.52;;;1.23;;
22107;SDS011;11220;48.812;9.128;2023-06-04T00:50:44;2.58;;;1.60;;
22107;SDS011;11220;48.812;9.128;2023-06-04T00:53:10;2.33;;;1.48;;
22107;SDS011;11220;48.812;9.128;2023-06-04T00:55:36;1.55;;;1.27;;
22107;SDS011;11220;48.812;9.128;2023-06-04T00:58:02;1.42;;;1.10;;
22107;SDS011;11220;48.812;9.128;2023-06-04T01:00:29;1.95;;;1.48;;
22107;SDS011;11220;48.812;9.128;2023-06-04T01:02:55;1.35;;;1.25;;
22107;SDS011;11220;48.812;9.128;2023-06-04T01:05:29;1.80;;;1.23;;
22107;SDS011;11220;48.812;9.128;2023-06-04T01:08:15;1.73;;;1.50;;
22107;SDS011;11220;48.812;9.128;2023-06-04T01:10:55;1.55;;;1.27;;
22107;SDS011;11220;48.812;9.128;2023-06-04T01:13:21;2.22;;;1.60;;
22107;SDS011;11220;48.812;9.128;2023-06-04T01:15:47;1.70;;;1.33;;
22107;SDS011;11220;48.812;9.128;2023-06-04T01:18:21;1.70;;;1.55;;
22107;SDS011;11220;48.812;9.128;2023-06-04T01:20:56;1.17;;;1.05;;
22107;SDS011;11220;48.812;9.128;2023-06-04T01:26:26;1.63;;;1.42;;
22107;SDS011;11220;48.812;9.128;2023-06-04T01:28:53;1.77;;;1.23;;
22107;SDS011;11220;48.812;9.128;2023-06-04T01:31:20;1.45;;;1.30;;
22107;SDS011;11220;48.812;9.128;2023-06-04T01:33:50;1.98;;;1.55;;
22107;SDS011;11220;48.812;9.128;2023-06-04T01:36:17;1.77;;;1.45;;
22107;SDS011;11220;48.812;9.128;2023-06-04T01:38:43;1.77;;;1.13;;
22107;SDS011;11220;48.812;9.128;2023-06-04T01:41:10;2.08;;;1.50;;
22107;SDS011;11220;48.812;9.128;2023-06-04T01:43:36;2.00;;;1.60;;
22107;SDS011;11220;48.812;9.128;2023-06-04T01:46:01;1.48;;;1.38;;
22107;SDS011;11220;48.812;9.128;2023-06-04T01:48:28;1.55;;;1.30;;
22107;SDS011;11220;48.812;9.128;2023-06-04T01:50:54;1.83;;;1.73;;
22107;SDS011;11220;48.812;9.128;2023-06-04T01:53:20;1.38;;;1.20;;
22107;SDS011;11220;48.812;9.128;2023-06-04T01:55:45;2.35;;;1.45;;
22107;SDS011;11220;48.812;9.128;2023-06-04T01:58:14;1.85;;;1.40;;
22107;SDS011;11220;48.812;9.128;2023-06-04T02:00:42;2.25;;;1.48;;
22107;SDS011;11220;48.812;9.128;2023-06-04T02:03:08;1.40;;;1.30;;
22107;SDS011;11220;48.812;9.128;2023-06-04T02:05:35;1.58;;;1.40;;
22107;SDS011;11220;48.812;9.128;2023-06-04T02:08:01;1.75;;;1.40;;
22107;SDS011;11220;48.812;9.128;2023-06-04T02:10:30;2.25;;;1.50;;
22107;SDS011;11220;48.812;9.128;2023-06-04T02:13:00;1.60;;;1.48;;
22107;SDS011;11220;48.812;9.128;2023-06-04T02:15:30;1.70;;;1.30;;
22107;SDS011;11220;48.812;9.128;2023-06-04T02:17:58;1.80;;;1.55;;
22107;SDS011;11220;48.812;9.128;2023-06-04T02:20:25;1.77;;;1.63;;
22107;SDS011;11220;48.812;9.128;2023-06-04T02:22:53;1.63;;;1.48;;
22107;SDS011;11220;48.812;9.128;2023-06-04T02:25:22;1.50;;;1.40;;
22107;SDS011;11220;48.812;9.128;2023-06-04T02:27:48;2.53;;;1.50;;
22107;SDS011;11220;48.812;9.128;2023-06-04T02:30:14;2.05;;;1.40;;
22107;SDS011;11220;48.812;9.128;2023-06-04T02:32:41;1.58;;;1.17;;
22107;SDS011;11220;48.812;9.128;2023-06-04T02:35:09;2.30;;;1.30;;
22107;SDS011;11220;48.812;9.128;2023-06-04T02:37:35;2.30;;;1.33;;
22107;SDS011;11220;48.812;9.128;2023-06-04T02:40:00;1.65;;;1.35;;
22107;SDS011;11220;48.812;9.128;2023-06-04T02:42:26;1.20;;;1.10;;
22107;SDS011;11220;48.812;9.128;2023-06-04T02:44:51;2.00;;;1.45;;
22107;SDS011;11220;48.812;9.128;2023-06-04T02:47:17;1.40;;;1.27;;
22107;SDS011;11220;48.812;9.128;2023-06-04T02:49:44;2.08;;;1.48;;
22107;SDS011;11220;48.812;9.128;2023-06-04T02:52:11;2.33;;;1.50;;
22107;SDS011;11220;48.812;9.128;2023-06-04T02:54:37;1.50;;;1.38;;
22107;SDS011;11220;48.812;9.128;2023-06-04T02:57:03;1.70;;;1.02;;
22107;SDS011;11220;48.812;9.128;2023-06-04T02:59:28;1.63;;;1.52;;
22107;SDS011;11220;48.812;9.128;2023-06-04T03:01:54;1.85;;;1.20;;
22107;SDS011;11220;48.812;9.128;2023-06-04T03:04:20;1.63;;;1.20;;
22107;SDS011;11220;48.812;9.128;2023-06-04T03:06:45;1.75;;;1.50;;
22107;SDS011;11220;48.812;9.128;2023-06-04T03:09:12;1.38;;;1.20;;
22107;SDS011;11220;48.812;9.128;2023-06-04T03:11:38;2.00;;;1.42;;
22107;SDS011;11220;48.812;9.128;2023-06-04T03:14:03;1.75;;;1.58;;
22107;SDS011;11220;48.812;9.128;2023-06-04T03:16:29;1.42;;;1.27;;
22107;SDS011;11220;48.812;9.128;2023-06-04T03:18:55;1.38;;;1.20;;
22107;SDS011;11220;48.812;9.128;2023-06-04T03:21:21;2.10;;;1.90;;
22107;SDS011;11220;48.812;9.128;2023-06-04T03:23:47;1.50;;;1.40;;
22107;SDS011;11220;48.812;9.128;2023-06-04T03:26:13;1.92;;;1.50;;
22107;SDS011;11220;48.812;9.128;2023-06-04T03:28:39;1.40;;;1.30;;
22107;SDS011;11220;48.812;9.128;2023-06-04T03:31:05;2.03;;;1.10;;
22107;SDS011;11220;48.812;9.128;2023-06-04T03:33:30;1.50;;;1.40;;
22107;SDS011;11220;48.812;9.128;2023-06-04T03:35:56;1.52;;;1.23;;
22107;SDS011;11220;48.812;9.128;2023-06-04T03:38:26;1.60;;;1.10;;
22107;SDS011;11220;48.812;9.128;2023-06-04T03:40:52;2.13;;;1.52;;
22107;SDS011;11220;48.812;9.128;2023-06-04T03:43:20;2.33;;;1.48;;
22107;SDS011;11220;48.812;9.128;2023-06-04T03:45:46;1.90;;;1.23;;
22107;SDS011;11220;48.812;9.128;2023-06-04T03:48:12;1.58;;;1.40;;
22107;SDS011;11220;48.812;9.128;2023-06-04T03:50:37;1.75;;;1.27;;
22107;SDS011;11220;48.812;9.128;2023-06-04T03:53:03;2.92;;;1.40;;
22107;SDS011;11220;48.812;9.128;2023-06-04T03:55:32;1.00;;;1.00;;
22107;SDS011;11220;48.812;9.128;2023-06-04T03:57:58;1.75;;;1.23;;
22107;SDS011;11220;48.812;9.128;2023-06-04T04:00:24;1.65;;;1.30;;
22107;SDS011;11220;48.812;9.128;2023-06-04T04:02:49;1.55;;;1.33;;
22107;SDS011;11220;48.812;9.128;2023-06-04T04:05:15;1.55;;;1.40;;
22107;SDS011;11220;48.812;9.128;2023-06-04T04:07:40;1.38;;;1.10;;
22107;SDS011;11220;48.812;9.128;2023-06-04T04:10:06;1.67;;;1.40;;
22107;SDS011;11220;48.812;9.128;2023-06-04T04:12:32;1.27;;;1.17;;
22107;SDS011;11220;48.812;9.128;2023-06-04T04:14:58;2.00;;;1.30;;
22107;SDS011;11220;48.812;9.128;2023-06-04T04:17:23;1.20;;;1.08;;
22107;SDS011;11220;48.812;9.128;2023-06-04T04:19:49;1.55;;;1.00;;
22107;SDS011;11220;48.812;9.128;2023-06-04T04:22:15;1.48;;;1.30;;
22107;SDS011;11220;48.812;9.128;2023-06-04T04:24:42;1.88;;;1.13;;
22107;SDS011;11220;48.812;9.128;2023-06-04T04:27:08;1.13;;;1.02;;
22107;SDS011;11220;48.812;9.128;2023-06-04T04:29:36;1.30;;;1.20;;
22107;SDS011;11220;48.812;9.128;2023-06-04T04:32:01;1.98;;;1.55;;
22107;SDS011;11220;48.812;9.128;2023-06-04T04:34:35;1.23;;;1.13;;
22107;SDS011;11220;48.812;9.128;2023-06-04T04:37:02;1.75;;;1.10;;
22107;SDS011;11220;48.812;9.128;2023-06-04T04:39:28;1.27;;;1.00;;
22107;SDS011;11220;48.812;9.128;2023-06-04T04:41:54;2.10;;;1.52;;
22107;SDS011;11220;48.812;9.128;2023-06-04T04:44:20;1.58;;;1.13;;
22107;SDS011;11220;48.812;9.128;2023-06-04T04:46:47;1.95;;;1.15;;
22107;SDS011;11220;48.812;9.128;2023-06-04T04:49:13;1.23;;;1.10;;
22107;SDS011;11220;48.812;9.128;2023-06-04T04:51:39;1.42;;;1.20;;
22107;SDS011;11220;48.812;9.128;2023-06-04T04:54:04;1.67;;;1.10;;
22107;SDS011;11220;48.812;9.128;2023-06-04T04:56:33;1.15;;;1.00;;
22107;SDS011;11220;48.812;9.128;2023-06-04T04:58:59;1.10;;;1.00;;
22107;SDS011;11220;48.812;9.128;2023-06-04T05:01:25;1.42;;;1.17;;
22107;SDS011;11220;48.812;9.128;2023-06-04T05:03:51;1.38;;;1.27;;
22107;SDS011;11220;48.812;9.128;2023-06-04T05:06:16;1.23;;;1.13;;
22107;SDS011;11220;48.812;9.128;2023-06-04T05:08:42;1.55;;;1.15;;
22107;SDS011;11220;48.812;9.128;2023-06-04T05:11:08;1.50;;;1.17;;
22107;SDS011;11220;48.812;9.128;2023-06-04T05:13:34;1.17;;;1.00;;
22107;SDS011;11220;48.812;9.128;2023-06-04T05:15:59;2.28;;;1.33;;
22107;SDS011;11220;48.812;9.128;2023-06-04T05:18:37;1.75;;;1.10;;
22107;SDS011;11220;48.812;9.128;2023-06-04T05:21:06;1.85;;;1.15;;
22107;SDS011;11220;48.812;9.128;2023-06-04T05:23:32;1.20;;;1.10;;
22107;SDS011;11220;48.812;9.128;2023-06-04T05:26:02;1.50;;;1.17;;
22107;SDS011;11220;48.812;9.128;2023-06-04T05:28:28;1.38;;;1.17;;
22107;SDS011;11220;48.812;9.128;2023-06-04T05:30:54;1.52;;;1.10;;
22107;SDS011;11220;48.812;9.128;2023-06-04T05:33:24;1.92;;;1.20;;
22107;SDS011;11220;48.812;9.128;2023-06-04T05:35:50;2.08;;;1.10;;
22107;SDS011;11220;48.812;9.128;2023-06-04T05:38:25;1.10;;;1.00;;
22107;SDS011;11220;48.812;9.128;2023-06-04T05:40:54;1.13;;;0.90;;
22107;SDS011;11220;48.812;9.128;2023-06-04T05:45:46;1.08;;;0.80;;
22107;SDS011;11220;48.812;9.128;2023-06-04T05:48:12;1.60;;;1.05;;
22107;SDS011;11220;48.812;9.128;2023-06-04T05:50:37;1.98;;;1.20;;
22107;SDS011;11220;48.812;9.128;2023-06-04T05:53:03;1.17;;;1.08;;
22107;SDS011;11220;48.812;9.128;2023-06-04T05:55:28;0.98;;;0.90;;
22107;SDS011;11220;48.812;9.128;2023-06-04T05:57:54;2.45;;;1.00;;
22107;SDS011;11220;48.812;9.128;2023-06-04T06:00:21;1.25;;;1.00;;
22107;SDS011;11220;48.812;9.128;2023-06-04T06:02:47;0.73;;;0.73;;
22107;SDS011;11220;48.812;9.128;2023-06-04T06:05:14;1.40;;;1.30;;
22107;SDS011;11220;48.812;9.128;2023-06-04T06:07:41;1.15;;;1.05;;
22107;SDS011;11220;48.812;9.128;2023-06-04T06:10:07;1.00;;;0.80;;
22107;SDS011;11220;48.812;9.128;2023-06-04T06:12:33;1.00;;;0.80;;
22107;SDS011;11220;48.812;9.128;2023-06-04T06:14:58;0.80;;;0.70;;
22107;SDS011;11220;48.812;9.128;2023-06-04T06:17:24;1.67;;;0.90;;
22107;SDS011;11220;48.812;9.128;2023-06-04T06:19:51;0.80;;;0.75;;
22107;SDS011;11220;48.812;9.128;2023-06-04T06:22:17;0.95;;;0.80;;
22107;SDS011;11220;48.812;9.128;2023-06-04T06:24:43;0.80;;;0.80;;
22107;SDS011;11220;48.812;9.128;2023-06-04T06:27:09;0.77;;;0.73;;
22107;SDS011;11220;48.812;9.128;2023-06-04T06:29:35;0.93;;;0.65;;
22107;SDS011;11220;48.812;9.128;2023-06-04T06:32:01;1.00;;;0.77;;
22107;SDS011;11220;48.812;9.128;2023-06-04T06:34:27;0.88;;;0.77;;
22107;SDS011;11220;48.812;9.128;2023-06-04T06:36:53;0.73;;;0.73;;
22107;SDS011;11220;48.812;9.128;2023-06-04T06:39:18;0.90;;;0.68;;
22107;SDS011;11220;48.812;9.128;2023-06-04T06:41:45;0.80;;;0.70;;
22107;SDS011;11220;48.812;9.128;2023-06-04T06:44:11;0.65;;;0.60;;
22107;SDS011;11220;48.812;9.128;2023-06-04T06:46:36;0.93;;;0.75;;
22107;SDS011;11220;48.812;9.128;2023-06-04T06:49:02;0.63;;;0.60;;
22107;SDS011;11220;48.812;9.128;2023-06-04T06:51:27;0.60;;;0.60;;
22107;SDS011;11220;48.812;9.128;2023-06-04T06:53:53;0.60;;;0.52;;
22107;SDS011;11220;48.812;9.128;2023-06-04T06:56:18;0.60;;;0.55;;
22107;SDS011;11220;48.812;9.128;2023-06-04T06:58:44;0.60;;;0.57;;
22107;SDS011;11220;48.812;9.128;2023-06-04T07:01:10;1.02;;;0.70;;
22107;SDS011;11220;48.812;9.128;2023-06-04T07:03:36;0.45;;;0.45;;
22107;SDS011;11220;48.812;9.128;2023-06-04T07:06:03;0.85;;;0.55;;
22107;SDS011;11220;48.812;9.128;2023-06-04T07:08:29;0.70;;;0.60;;
22107;SDS011;11220;48.812;9.128;2023-06-04T07:10:54;0.70;;;0.50;;
22107;SDS011;11220;48.812;9.128;2023-06-04T07:13:20;0.65;;;0.40;;
22107;SDS011;11220;48.812;9.128;2023-06-04T07:15:45;0.50;;;0.50;;
22107;SDS011;11220;48.812;9.128;2023-06-04T07:18:11;0.52;;;0.47;;
22107;SDS011;11220;48.812;9.128;2023-06-04T07:20:37;0.68;;;0.57;;
22107;SDS011;11220;48.812;9.128;2023-06-04T07:23:02;0.85;;;0.63;;
22107;SDS011;11220;48.812;9.128;2023-06-04T07:25:28;0.65;;;0.50;;
22107;SDS011;11220;48.812;9.128;2023-06-04T07:27:53;0.93;;;0.60;;
22107;SDS011;11220;48.812;9.128;2023-06-04T07:30:22;0.50;;;0.50;;
22107;SDS011;11220;48.812;9.128;2023-06-04T07:32:48;0.90;;;0.57;;
22107;SDS011;11220;48.812;9.128;2023-06-04T07:35:14;0.95;;;0.50;;
22107;SDS011;11220;48.812;9.128;2023-06-04T07:37:40;0.55;;;0.47;;
22107;SDS011;11220;48.812;9.128;2023-06-04T07:40:06;0.30;;;0.30;;
22107;SDS011;11220;48.812;9.128;2023-06-04T07:42:32;1.27;;;0.60;;
22107;SDS011;11220;48.812;9.128;2023-06-04T07:44:58;0.73;;;0.50;;
22107;SDS011;11220;48.812;9.128;2023-06-04T07:47:24;0.32;;;0.30;;
22107;SDS011;11220;48.812;9.128;2023-06-04T07:49:49;0.63;;;0.40;;
22107;SDS011;11220;48.812;9.128;2023-06-04T07:52:15;0.60;;;0.40;;
22107;SDS011;11220;48.812;9.128;2023-06-04T07:54:41;0.40;;;0.40;;
22107;SDS011;11220;48.812;9.128;2023-06-04T07:57:07;1.00;;;0.50;;
22107;SDS011;11220;48.812;9.128;2023-06-04T07:59:33;0.50;;;0.50;;
22107;SDS011;11220;48.812;9.128;2023-06-04T08:01:59;0.82;;;0.40;;
22107;SDS011;11220;48.812;9.128;2023-06-04T08:04:25;0.43;;;0.40;;
22107;SDS011;11220;48.812;9.128;2023-06-04T08:06:51;0.35;;;0.35;;
22107;SDS011;11220;48.812;9.128;2023-06-04T08:09:16;0.43;;;0.40;;
22107;SDS011;11220;48.812;9.128;2023-06-04T08:11:42;0.40;;;0.40;;
22107;SDS011;11220;48.812;9.128;2023-06-04T08:14:09;0.73;;;0.50;;
22107;SDS011;11220;48.812;9.128;2023-06-04T08:16:38;1.20;;;0.50;;
22107;SDS011;11220;48.812;9.128;2023-06-04T08:19:05;0.40;;;0.40;;
22107;SDS011;11220;48.812;9.128;2023-06-04T08:21:31;0.40;;;0.40;;
22107;SDS011;11220;48.812;9.128;2023-06-04T08:23:58;0.40;;;0.40;;
22107;SDS011;11220;48.812;9.128;2023-06-04T08:26:24;0.50;;;0.45;;
22107;SDS011;11220;48.812;9.128;2023-06-04T08:28:51;0.38;;;0.30;;
22107;SDS011;11220;48.812;9.128;2023-06-04T08:31:17;0.25;;;0.25;;
22107;SDS011;11220;48.812;9.128;2023-06-04T08:33:46;0.47;;;0.40;;
22107;SDS011;11220;48.812;9.128;2023-06-04T08:36:11;0.52;;;0.40;;
22107;SDS011;11220;48.812;9.128;2023-06-04T08:38:37;0.80;;;0.20;;
22107;SDS011;11220;48.812;9.128;2023-06-04T08:41:15;0.43;;;0.43;;
22107;SDS011;11220;48.812;9.128;2023-06-04T08:43:48;0.40;;;0.30;;
22107;SDS011;11220;48.812;9.128;2023-06-04T08:46:15;0.30;;;0.30;;
22107;SDS011;11220;48.812;9.128;2023-06-04T08:48:44;0.57;;;0.35;;
22107;SDS011;11220;48.812;9.128;2023-06-04T08:51:09;0.40;;;0.30;;
22107;SDS011;11220;48.812;9.128;2023-06-04T08:53:46;0.40;;;0.30;;
22107;SDS011;11220;48.812;9.128;2023-06-04T08:56:15;0.77;;;0.40;;
22107;SDS011;11220;48.812;9.128;2023-06-04T08:58:42;0.47;;;0.47;;
22107;SDS011;11220;48.812;9.128;2023-06-04T09:01:09;0.55;;;0.40;;
22107;SDS011;11220;48.812;9.128;2023-06-04T09:03:36;0.50;;;0.40;;
22107;SDS011;11220;48.812;9.128;2023-06-04T09:06:02;0.30;;;0.28;;
22107;SDS011;11220;48.812;9.128;2023-06-04T09:08:31;0.30;;;0.30;;
22107;SDS011;11220;48.812;9.128;2023-06-04T09:11:05;0.30;;;0.30;;
22107;SDS011;11220;48.812;9.128;2023-06-04T09:13:32;0.50;;;0.50;;
22107;SDS011;11220;48.812;9.128;2023-06-04T09:16:02;0.50;;;0.50;;
22107;SDS011;11220;48.812;9.128;2023-06-04T09:18:30;0.40;;;0.40;;
22107;SDS011;11220;48.812;9.128;2023-06-04T09:21:06;0.90;;;0.60;;
22107;SDS011;11220;48.812;9.128;2023-06-04T09:26:11;0.40;;;0.40;;
22107;SDS011;11220;48.812;9.128;2023-06-04T09:28:41;0.43;;;0.43;;
22107;SDS011;11220;48.812;9.128;2023-06-04T09:31:25;0.70;;;0.53;;
22107;SDS011;11220;48.812;9.128;2023-06-04T09:33:51;0.50;;;0.38;;
22107;SDS011;11220;48.812;9.128;2023-06-04T09:36:17;0.30;;;0.30;;
22107;SDS011;11220;48.812;9.128;2023-06-04T09:38:43;0.43;;;0.30;;
22107;SDS011;11220;48.812;9.128;2023-06-04T09:41:12;0.43;;;0.30;;
22107;SDS011;11220;48.812;9.128;2023-06-04T09:43:38;0.30;;;0.30;;
22107;SDS011;11220;48.812;9.128;2023-06-04T09:46:08;0.45;;;0.28;;
22107;SDS011;11220;48.812;9.128;2023-06-04T09:51:09;0.30;;;0.30;;
22107;SDS011;11220;48.812;9.128;2023-06-04T09:53:36;0.25;;;0.25;;
22107;SDS011;11220;48.812;9.128;2023-06-04T09:56:03;0.40;;;0.40;;
22107;SDS011;11220;48.812;9.128;2023-06-04T09:58:37;0.60;;;0.40;;
22107;SDS011;11220;48.812;9.128;2023-06-04T10:01:04;0.30;;;0.20;;
22107;SDS011;11220;48.812;9.128;2023-06-04T10:03:34;0.30;;;0.25;;
22107;SDS011;11220;48.812;9.128;2023-06-04T10:08:29;0.17;;;0.17;;
22107;SDS011;11220;48.812;9.128;2023-06-04T10:10:56;0.40;;;0.30;;
22107;SDS011;11220;48.812;9.128;2023-06-04T10:13:26;1.05;;;0.40;;
22107;SDS011;11220;48.812;9.128;2023-06-04T10:15:55;0.40;;;0.40;;
22107;SDS011;11220;48.812;9.128;2023-06-04T10:18:23;0.30;;;0.20;;
22107;SDS011;11220;48.812;9.128;2023-06-04T10:20:52;0.40;;;0.30;;
22107;SDS011;11220;48.812;9.128;2023-06-04T10:23:19;0.20;;;0.20;;
22107;SDS011;11220;48.812;9.128;2023-06-04T10:25:47;0.30;;;0.30;;
22107;SDS011;11220;48.812;9.128;2023-06-04T10:28:15;0.45;;;0.30;;
22107;SDS011;11220;48.812;9.128;2023-06-04T10:30:40;0.52;;;0.45;;
22107;SDS011;11220;48.812;9.128;2023-06-04T10:33:06;0.40;;;0.40;;
22107;SDS011;11220;48.812;9.128;2023-06-04T10:35:32;0.75;;;0.20;;
22107;SDS011;11220;48.812;9.128;2023-06-04T10:38:08;0.40;;;0.30;;
22107;SDS011;11220;48.812;9.128;2023-06-04T10:40:35;0.43;;;0.30;;
22107;SDS011;11220;48.812;9.128;2023-06-04T10:43:08;0.30;;;0.30;;
22107;SDS011;11220;48.812;9.128;2023-06-04T10:45:35;0.73;;;0.30;;
22107;SDS011;11220;48.812;9.128;2023-06-04T10:48:02;0.40;;;0.35;;
22107;SDS011;11220;48.812;9.128;2023-06-04T10:50:28;0.30;;;0.30;;
22107;SDS011;11220;48.812;9.128;2023-06-04T10:52:54;0.30;;;0.30;;
22107;SDS011;11220;48.812;9.128;2023-06-04T10:55:23;0.30;;;0.28;;
22107;SDS011;11220;48.812;9.128;2023-06-04T10:57:54;0.47;;;0.30;;
22107;SDS011;11220;48.812;9.128;2023-06-04T11:00:21;0.40;;;0.30;;
22107;SDS011;11220;48.812;9.128;2023-06-04T11:02:58;0.20;;;0.20;;
22107;SDS011;11220;48.812;9.128;2023-06-04T11:05:33;0.40;;;0.38;;
22107;SDS011;11220;48.812;9.128;2023-06-04T11:08:03;0.20;;;0.20;;
22107;SDS011;11220;48.812;9.128;2023-06-04T11:10:31;0.25;;;0.25;;
22107;SDS011;11220;48.812;9.128;2023-06-04T11:13:01;0.40;;;0.30;;
22107;SDS011;11220;48.812;9.128;2023-06-04T11:15:40;0.30;;;0.30;;
22107;SDS011;11220;48.812;9.128;2023-06-04T11:18:08;0.20;;;0.20;;
22107;SDS011;11220;48.812;9.128;2023-06-04T11:20:38;0.40;;;0.20;;
22107;SDS011;11220;48.812;9.128;2023-06-04T11:23:03;0.30;;;0.25;;
22107;SDS011;11220;48.812;9.128;2023-06-04T11:25:30;0.52;;;0.30;;
22107;SDS011;11220;48.812;9.128;2023-06-04T11:27:57;0.13;;;0.10;;
22107;SDS011;11220;48.812;9.128;2023-06-04T11:30:24;0.47;;;0.25;;
22107;SDS011;11220;48.812;9.128;2023-06-04T11:32:50;0.30;;;0.30;;
22107;SDS011;11220;48.812;9.128;2023-06-04T11:35:31;0.30;;;0.20;;
22107;SDS011;11220;48.812;9.128;2023-06-04T11:38:04;0.30;;;0.30;;
22107;SDS011;11220;48.812;9.128;2023-06-04T11:40:30;0.20;;;0.20;;
22107;SDS011;11220;48.812;9.128;2023-06-04T11:42:55;0.20;;;0.20;;
22107;SDS011;11220;48.812;9.128;2023-06-04T11:45:21;0.40;;;0.38;;
22107;SDS011;11220;48.812;9.128;2023-06-04T11:47:48;0.30;;;0.30;;
22107;SDS011;11220;48.812;9.128;2023-06-04T11:50:18;0.47;;;0.28;;
22107;SDS011;11220;48.812;9.128;2023-06-04T11:52:45;0.55;;;0.25;;
22107;SDS011;11220;48.812;9.128;2023-06-04T11:55:12;0.30;;;0.30;;
22107;SDS011;11220;48.812;9.128;2023-06-04T11:57:38;0.40;;;0.30;;
22107;SDS011;11220;48.812;9.128;2023-06-04T12:00:05;0.20;;;0.20;;
22107;SDS011;11220;48.812;9.128;2023-06-04T12:02:35;0.30;;;0.20;;
22107;SDS011;11220;48.812;9.128;2023-06-04T12:05:14;0.20;;;0.20;;
22107;SDS011;11220;48.812;9.128;2023-06-04T12:07:40;0.38;;;0.20;;
22107;SDS011;11220;48.812;9.128;2023-06-04T12:10:07;0.30;;;0.25;;
22107;SDS011;11220;48.812;9.128;2023-06-04T12:12:33;0.25;;;0.25;;
22107;SDS011;11220;48.812;9.128;2023-06-04T12:15:00;0.50;;;0.30;;
22107;SDS011;11220;48.812;9.128;2023-06-04T12:17:26;0.20;;;0.20;;
22107;SDS011;11220;48.812;9.128;2023-06-04T12:19:51;0.25;;;0.20;;
22107;SDS011;11220;48.812;9.128;2023-06-04T12:22:17;0.22;;;0.20;;
22107;SDS011;11220;48.812;9.128;2023-06-04T12:24:54;0.30;;;0.30;;
22107;SDS011;11220;48.812;9.128;2023-06-04T12:27:22;0.20;;;0.20;;
22107;SDS011;11220;48.812;9.128;2023-06-04T12:32:20;0.30;;;0.30;;
22107;SDS011;11220;48.812;9.128;2023-06-04T12:34:46;0.35;;;0.35;;
22107;SDS011;11220;48.812;9.128;2023-06-04T12:37:13;0.38;;;0.30;;
22107;SDS011;11220;48.812;9.128;2023-06-04T12:39:39;0.30;;;0.20;;
22107;SDS011;11220;48.812;9.128;2023-06-04T12:42:05;0.38;;;0.30;;
22107;SDS011;11220;48.812;9.128;2023-06-04T12:44:54;0.38;;;0.22;;
22107;SDS011;11220;48.812;9.128;2023-06-04T12:47:19;0.28;;;0.28;;
22107;SDS011;11220;48.812;9.128;2023-06-04T12:49:46;0.13;;;0.13;;
22107;SDS011;11220;48.812;9.128;2023-06-04T12:52:11;0.30;;;0.20;;
22107;SDS011;11220;48.812;9.128;2023-06-04T12:54:40;0.50;;;0.40;;
22107;SDS011;11220;48.812;9.128;2023-06-04T12:57:06;0.20;;;0.20;;
22107;SDS011;11220;48.812;9.128;2023-06-04T12:59:32;0.30;;;0.20;;
22107;SDS011;11220;48.812;9.128;2023-06-04T13:01:57;0.30;;;0.30;;
22107;SDS011;11220;48.812;9.128;2023-06-04T13:04:23;0.25;;;0.20;;
22107;SDS011;11220;48.812;9.128;2023-06-04T13:06:49;0.20;;;0.15;;
22107;SDS011;11220;48.812;9.128;2023-06-04T13:09:17;0.50;;;0.43;;
22107;SDS011;11220;48.812;9.128;2023-06-04T13:11:44;0.45;;;0.20;;
22107;SDS011;11220;48.812;9.128;2023-06-04T13:14:10;0.55;;;0.40;;
22107;SDS011;11220;48.812;9.128;2023-06-04T13:16:37;0.85;;;0.40;;
22107;SDS011;11220;48.812;9.128;2023-06-04T13:19:03;0.30;;;0.20;;
22107;SDS011;11220;48.812;9.128;2023-06-04T13:21:29;0.10;;;0.10;;
22107;SDS011;11220;48.812;9.128;2023-06-04T13:23:58;0.28;;;0.28;;
22107;SDS011;11220;48.812;9.128;2023-06-04T13:26:26;0.25;;;0.20;;
22107;SDS011;11220;48.812;9.128;2023-06-04T13:28:52;0.35;;;0.20;;
22107;SDS011;11220;48.812;9.128;2023-06-04T13:34:15;0.30;;;0.30;;
22107;SDS011;11220;48.812;9.128;2023-06-04T13:37:09;0.30;;;0.20;;
22107;SDS011;11220;48.812;9.128;2023-06-04T13:39:37;0.13;;;0.10;;
22107;SDS011;11220;48.812;9.128;2023-06-04T13:42:03;0.45;;;0.20;;
22107;SDS011;11220;48.812;9.128;2023-06-04T13:44:29;0.20;;;0.20;;
22107;SDS011;11220;48.812;9.128;2023-06-04T13:46:57;0.45;;;0.45;;
22107;SDS011;11220;48.812;9.128;2023-06-04T13:49:23;0.30;;;0.30;;
22107;SDS011;11220;48.812;9.128;2023-06-04T13:51:49;0.25;;;0.25;;
22107;SDS011;11220;48.812;9.128;2023-06-04T13:54:14;0.50;;;0.47;;
22107;SDS011;11220;48.812;9.128;2023-06-04T13:56:40;0.30;;;0.30;;
22107;SDS011;11220;48.812;9.128;2023-06-04T13:59:05;0.10;;;0.10;;
22107;SDS011;11220;48.812;9.128;2023-06-04T14:01:31;0.57;;;0.32;;
22107;SDS011;11220;48.812;9.128;2023-06-04T14:03:57;0.28;;;0.20;;
22107;SDS011;11220;48.812;9.128;2023-06-04T14:06:23;0.20;;;0.17;;
22107;SDS011;11220;48.812;9.128;2023-06-04T14:08:49;0.20;;;0.20;;
22107;SDS011;11220;48.812;9.128;2023-06-04T14:11:14;0.28;;;0.28;;
22107;SDS011;11220;48.812;9.128;2023-06-04T14:13:40;0.47;;;0.30;;
22107;SDS011;11220;48.812;9.128;2023-06-04T14:16:09;0.38;;;0.30;;
22107;SDS011;11220;48.812;9.128;2023-06-04T14:18:35;0.20;;;0.20;;
22107;SDS011;11220;48.812;9.128;2023-06-04T14:21:01;0.20;;;0.20;;
22107;SDS011;11220;48.812;9.128;2023-06-04T14:23:26;0.32;;;0.30;;
22107;SDS011;11220;48.812;9.128;2023-06-04T14:25:52;0.60;;;0.30;;
22107;SDS011;11220;48.812;9.128;2023-06-04T14:28:18;0.20;;;0.20;;
22107;SDS011;11220;48.812;9.128;2023-06-04T14:30:45;0.30;;;0.30;;
22107;SDS011;11220;48.812;9.128;2023-06-04T14:33:11;0.32;;;0.20;;
22107;SDS011;11220;48.812;9.128;2023-06-04T14:35:37;0.40;;;0.20;;
22107;SDS011;11220;48.812;9.128;2023-06-04T14:38:04;0.20;;;0.20;;
22107;SDS011;11220;48.812;9.128;2023-06-04T14:40:29;0.30;;;0.30;;
22107;SDS011;11220;48.812;9.128;2023-06-04T14:42:55;0.63;;;0.20;;
22107;SDS011;11220;48.812;9.128;2023-06-04T14:45:22;0.32;;;0.20;;
22107;SDS011;11220;48.812;9.128;2023-06-04T14:47:48;0.20;;;0.20;;
22107;SDS011;11220;48.812;9.128;2023-06-04T14:50:15;0.30;;;0.10;;
22107;SDS011;11220;48.812;9.128;2023-06-04T14:52:42;0.17;;;0.17;;
22107;SDS011;11220;48.812;9.128;2023-06-04T14:55:08;0.30;;;0.20;;
22107;SDS011;11220;48.812;9.128;2023-06-04T14:57:34;0.10;;;0.10;;
22107;SDS011;11220;48.812;9.128;2023-06-04T14:59:59;0.30;;;0.20;;
22107;SDS011;11220;48.812;9.128;2023-06-04T15:02:25;0.30;;;0.30;;
22107;SDS011;11220;48.812;9.128;2023-06-04T15:04:52;0.98;;;0.30;;
22107;SDS011;11220;48.812;9.128;2023-06-04T15:07:17;0.30;;;0.20;;